Time;durP1;ratioP1;P1;durP2;ratioP2;P2;SDS_P1;SDS_P2;PMS_P1;PMS_P2;Temp;Humidity;BMP_temperature;BMP_pressure;BME280_temperature;BME280_humidity;BME280_pressure;Samples;Min_cycle;Max_cycle;Signal;HPM_P1;HPM_P2
2021/11/12 00:13:39;;;;;;;42.25;21.17;;;;;;;1.73;63.56;99973.38;1718212;82;21039;-66
2021/11/12 00:16:08;;;;;;;47.43;23.85;;;;;;;1.72;63.60;99972.58;1732749;82;20981;-65
2021/11/12 00:18:37;;;;;;;42.43;21.45;;;;;;;1.70;63.68;99969.28;1738647;82;21039;-64
2021/11/12 00:21:07;;;;;;;44.08;21.77;;;;;;;1.66;63.83;99967.59;1735933;82;21116;-65
2021/11/12 00:23:37;;;;;;;42.62;21.68;;;;;;;1.62;64.06;99967.80;1737951;82;21058;-64
2021/11/12 00:26:06;;;;;;;38.83;19.80;;;;;;;1.61;64.24;99963.45;1735420;82;20990;-65
2021/11/12 00:28:47;;;;;;;41.35;22.20;;;;;;;1.59;64.35;99961.50;1711756;82;21047;-66
2021/11/12 00:31:59;;;;;;;;;;;;;;;;;;;;;
2021/11/12 00:34:09;;;;;;;41.73;21.73;;;;;;;1.57;64.61;99961.75;1715026;80;21071;-65
2021/11/12 00:36:47;;;;;;;42.58;20.35;;;;;;;1.56;64.80;99962.01;1707299;82;21210;-65
2021/11/12 00:39:13;;;;;;;40.65;19.92;;;;;;;1.54;64.96;99958.71;1734734;82;21020;-66
2021/11/12 00:41:43;;;;;;;37.33;20.35;;;;;;;1.52;65.11;99950.81;1737767;82;21084;-66
2021/11/12 00:44:24;;;;;;;38.23;19.95;;;;;;;1.51;65.26;99946.47;1735184;82;21047;-64
2021/11/12 00:46:52;;;;;;;39.30;21.23;;;;;;;1.50;65.40;99944.00;1701677;82;21196;-65
2021/11/12 00:49:22;;;;;;;35.83;19.48;;;;;;;1.48;65.54;99942.89;1732662;82;21012;-65
2021/11/12 00:51:55;;;;;;;34.95;19.07;;;;;;;1.48;65.69;99943.42;1690244;83;21034;-63
2021/11/12 00:54:19;;;;;;;40.20;19.27;;;;;;;1.47;65.83;99934.44;1657360;84;21102;-64
2021/11/12 00:56:49;;;;;;;38.33;19.23;;;;;;;1.48;65.94;99936.10;1690313;83;21078;-65
2021/11/12 00:59:16;;;;;;;45.48;19.87;;;;;;;1.50;66.03;99935.84;1688571;83;21816;-65
2021/11/12 01:01:45;;;;;;;45.03;23.20;;;;;;;1.52;66.14;99928.28;1690232;83;21065;-64
2021/11/12 01:04:28;;;;;;;42.95;22.80;;;;;;;1.53;66.25;99928.03;1686466;84;21099;-64
2021/11/12 01:06:55;;;;;;;43.65;22.32;;;;;;;1.55;66.34;99929.14;1686259;83;21064;-63
2021/11/12 01:09:24;;;;;;;42.03;22.85;;;;;;;1.55;66.45;99929.94;1680650;85;21032;-64
2021/11/12 01:11:53;;;;;;;48.55;23.15;;;;;;;1.56;66.55;99924.81;1683609;85;21231;-65
2021/11/12 01:14:24;;;;;;;45.45;21.82;;;;;;;1.57;66.63;99919.65;1684458;83;21107;-65
2021/11/12 01:16:53;;;;;;;39.98;21.50;;;;;;;1.58;66.69;99918.59;1682168;85;21099;-65
2021/11/12 01:19:22;;;;;;;40.63;20.45;;;;;;;1.60;66.69;99911.55;1682369;85;21000;-64
2021/11/12 01:21:52;;;;;;;43.83;24.35;;;;;;;1.60;66.81;99906.12;1681821;83;21153;-65
2021/11/12 01:24:20;;;;;;;50.78;23.45;;;;;;;1.59;66.91;99900.38;1694454;83;21177;-64
2021/11/12 01:26:47;;;;;;;42.88;22.13;;;;;;;1.58;67.03;99910.45;1718841;83;21084;-65
2021/11/12 01:29:13;;;;;;;44.10;21.33;;;;;;;1.57;67.14;99906.06;1692926;83;21511;-63
2021/11/12 01:31:39;;;;;;;40.20;23.05;;;;;;;1.56;67.18;99899.53;1714708;83;21032;-62
2021/11/12 01:34:11;;;;;;;41.88;22.80;;;;;;;1.55;67.27;99895.98;1719175;83;21474;-65
2021/11/12 01:36:43;;;;;;;44.15;23.52;;;;;;;1.56;67.33;99892.73;1693113;83;21078;-64
2021/11/12 01:39:19;;;;;;;47.43;23.40;;;;;;;1.55;67.41;99892.46;1715801;83;21036;-65
2021/11/12 01:41:49;;;;;;;46.85;23.10;;;;;;;1.54;67.53;99892.98;1711830;83;21421;-65
2021/11/12 01:44:25;;;;;;;47.38;23.40;;;;;;;1.53;67.63;99895.44;1717801;83;20993;-63
2021/11/12 01:47:41;;;;;;;45.28;22.70;;;;;;;1.52;67.73;99888.34;1713734;83;20992;-64
2021/11/12 01:49:29;;;;;;;38.90;22.75;;;;;;;1.51;67.92;99883.98;1702247;83;21337;-65
2021/11/12 01:52:06;;;;;;;38.25;21.90;;;;;;;1.49;68.08;99886.66;1719895;82;21536;-64
2021/11/12 01:59:48;;;;;;;47.13;26.15;;;;;;;1.41;68.49;99884.67;1712695;83;21065;-64
2021/11/12 02:02:15;;;;;;;51.02;25.20;;;;;;;1.41;68.54;99881.13;1719228;83;21811;-64
2021/11/12 02:04:41;;;;;;;55.25;27.40;;;;;;;1.39;68.67;99884.09;1694042;83;21036;-65
2021/11/12 02:07:07;;;;;;;51.77;26.55;;;;;;;1.37;68.77;99882.69;1719345;83;21036;-66
2021/11/12 02:09:36;;;;;;;44.27;24.72;;;;;;;1.35;68.84;99884.30;1721024;83;20990;-65
2021/11/12 02:14:44;;;;;;;43.48;24.70;;;;;;;1.32;69.01;99881.55;1720820;83;21170;-64
2021/11/12 02:17:19;;;;;;;52.13;26.70;;;;;;;1.32;69.11;99880.72;1721065;83;21068;-64
2021/11/12 02:19:51;;;;;;;45.35;24.82;;;;;;;1.33;69.16;99881.83;1717556;83;21041;-66
2021/11/12 02:22:17;;;;;;;49.80;25.90;;;;;;;1.31;69.17;99878.53;1694501;83;21000;-65
2021/11/12 02:24:51;;;;;;;45.73;24.40;;;;;;;1.31;69.21;99873.66;1720967;82;21099;-63
2021/11/12 02:27:17;;;;;;;44.25;24.85;;;;;;;1.29;69.21;99875.27;1719878;83;21123;-66
2021/11/12 02:29:47;;;;;;;45.50;25.65;;;;;;;1.28;69.27;99880.39;1694227;83;21040;-64
2021/11/12 02:32:24;;;;;;;47.43;23.80;;;;;;;1.27;69.32;99871.14;1694810;83;21046;-66
2021/11/12 02:34:52;;;;;;;42.30;23.45;;;;;;;1.26;69.34;99866.80;1716977;83;21063;-66
2021/11/12 02:37:20;;;;;;;40.35;22.75;;;;;;;1.24;69.33;99874.36;1679255;83;21005;-64
2021/11/12 02:39:47;;;;;;;49.65;24.80;;;;;;;1.21;69.36;99870.27;1715655;83;21833;-66
2021/11/12 02:42:13;;;;;;;45.52;24.80;;;;;;;1.20;69.55;99874.86;1721153;83;21074;-65
2021/11/12 02:44:42;;;;;;;38.67;22.02;;;;;;;1.21;69.70;99867.55;1679291;83;21089;-65
2021/11/12 02:47:10;;;;;;;37.90;21.35;;;;;;;1.23;69.81;99868.66;1715380;83;21061;-65
2021/11/12 02:49:37;;;;;;;40.83;21.15;;;;;;;1.23;69.90;99868.09;1721118;83;21001;-64
2021/11/12 02:52:06;;;;;;;32.85;20.08;;;;;;;1.24;70.03;99862.98;1694276;83;21111;-65
2021/11/12 02:54:33;;;;;;;38.50;19.48;;;;;;;1.25;70.03;99860.53;1721294;83;21457;-65
2021/11/12 02:57:02;;;;;;;41.60;20.27;;;;;;;1.26;69.99;99860.84;1720736;83;21099;-65
2021/11/12 02:59:30;;;;;;;42.95;21.82;;;;;;;1.24;69.99;99861.62;1717715;83;21082;-66
2021/11/12 03:02:02;;;;;;;41.58;21.40;;;;;;;1.24;70.08;99861.62;1719228;82;21063;-63
2021/11/12 03:04:28;;;;;;;42.60;22.65;;;;;;;1.25;70.21;99870.04;1713645;83;21033;-64
2021/11/12 03:06:57;;;;;;;43.63;22.05;;;;;;;1.25;70.27;99866.48;1710965;83;21050;-63
2021/11/12 03:09:26;;;;;;;39.15;21.97;;;;;;;1.21;70.27;99864.28;1711310;83;21016;-65
2021/11/12 03:11:56;;;;;;;37.25;21.02;;;;;;;1.21;70.44;99861.56;1710426;83;21032;-64
2021/11/12 03:14:23;;;;;;;36.77;21.40;;;;;;;1.20;70.42;99861.81;1706778;83;21063;-64
2021/11/12 03:16:51;;;;;;;45.78;24.25;;;;;;;1.18;70.62;99862.59;1710957;83;21021;-65
2021/11/12 03:19:18;;;;;;;38.80;22.02;;;;;;;1.17;70.83;99857.72;1711331;83;21025;-64
2021/11/12 03:21:45;;;;;;;44.25;24.67;;;;;;;1.18;71.02;99866.14;1710858;83;21574;-64
2021/11/12 03:25:04;;;;;;;48.73;25.17;;;;;;;1.18;71.20;99860.70;1710957;82;21026;-65
2021/11/12 03:59:57;;;;;;;38.53;22.90;;;;;;;1.05;72.11;99860.53;1711121;83;21009;-65
2021/11/12 04:07:47;;;;;;;43.05;22.62;;;;;;;0.95;72.54;99855.77;1672607;85;21529;-65
2021/11/12 04:18:25;;;;;;;47.85;23.73;;;;;;;0.85;72.97;99848.27;1675063;85;20995;-63
2021/11/12 04:21:37;;;;;;;52.75;26.65;;;;;;;0.84;73.05;99848.52;1681036;85;27114;-64
2021/11/12 05:10:01;;;;;;;48.98;26.48;;;;;;;0.63;75.72;99866.36;1628946;85;21108;-64
2021/11/12 05:26:18;;;;;;;51.10;25.70;;;;;;;0.56;76.21;99879.52;1618533;86;21527;-65
2021/11/12 05:50:14;;;;;;;47.10;24.70;;;;;;;0.69;76.75;99908.77;1590864;89;21142;-64
2021/11/12 05:55:24;;;;;;;57.53;28.62;;;;;;;0.77;76.70;99901.59;1598105;89;21087;-63
2021/11/12 05:57:52;;;;;;;55.45;28.02;;;;;;;0.81;76.65;99891.91;1585931;89;21064;-64
2021/11/12 06:00:19;;;;;;;54.15;28.92;;;;;;;0.87;76.61;99897.42;1583173;89;21110;-65
2021/11/12 06:02:48;;;;;;;65.45;33.35;;;;;;;0.90;76.57;99895.56;1599313;88;21617;-65
2021/11/12 06:05:17;;;;;;;64.87;30.55;;;;;;;0.92;76.53;99901.02;1603722;88;21075;-63
2021/11/12 06:07:43;;;;;;;70.80;33.48;;;;;;;0.94;76.51;99896.17;1578732;90;21060;-65
2021/11/12 06:10:10;;;;;;;88.82;36.60;;;;;;;0.96;76.56;99893.20;1566651;90;21162;-63
2021/11/12 06:12:37;;;;;;;69.72;31.68;;;;;;;1.00;76.58;99894.91;1607005;88;21058;-64
2021/11/12 06:15:05;;;;;;;71.80;31.50;;;;;;;1.03;76.66;99892.52;1576567;90;21050;-65
2021/11/12 06:17:32;;;;;;;59.85;29.10;;;;;;;1.06;76.63;99897.45;1577986;90;21082;-64
2021/11/12 06:20:00;;;;;;;48.98;27.62;;;;;;;1.11;76.68;99895.89;1590351;90;21031;-65
2021/11/12 06:22:27;;;;;;;57.50;27.17;;;;;;;1.15;76.68;99901.10;1578240;90;21231;-63
2021/11/12 06:24:55;;;;;;;51.20;28.07;;;;;;;1.19;76.74;99897.67;1600521;88;21043;-66
2021/11/12 06:27:22;;;;;;;53.92;27.62;;;;;;;1.24;76.68;99903.70;1576901;90;21012;-64
2021/11/12 06:29:50;;;;;;;57.45;29.70;;;;;;;1.28;76.75;99906.75;1578115;90;21034;-65
2021/11/12 06:32:16;;;;;;;58.28;31.50;;;;;;;1.34;76.83;99911.17;1608179;88;21983;-65
2021/11/12 06:34:43;;;;;;;49.38;29.32;;;;;;;1.40;76.85;99906.66;1580056;90;21173;-68
2021/11/12 06:37:11;;;;;;;67.90;32.65;;;;;;;1.44;76.87;99911.33;1572609;90;21115;-64
2021/11/12 06:39:38;;;;;;;58.55;30.12;;;;;;;1.48;76.90;99908.11;1600514;88;21083;-67
2021/11/12 06:42:15;;;;;;;65.87;32.53;;;;;;;1.53;76.94;99909.02;1576169;90;21094;-63
2021/11/12 06:52:24;;;;;;;69.42;36.42;;;;;;;1.81;77.18;99904.48;1587267;90;21039;-64
2021/11/12 06:54:51;;;;;;;57.65;31.55;;;;;;;1.89;77.22;99907.84;1608774;88;21558;-66
2021/11/12 06:57:20;;;;;;;59.05;31.48;;;;;;;1.95;77.18;99894.59;1563830;90;21069;-66
2021/11/12 06:59:47;;;;;;;67.22;35.95;;;;;;;2.02;77.12;99898.48;1576137;90;21108;-65
2021/11/12 07:02:19;;;;;;;68.02;31.75;;;;;;;2.06;77.14;99891.47;1611951;88;21092;-67
2021/11/12 07:04:48;;;;;;;60.73;32.95;;;;;;;2.13;77.32;99901.59;1593037;89;21644;-66
2021/11/12 07:07:15;;;;;;;55.73;30.00;;;;;;;2.21;77.39;99894.90;1594930;88;21583;-64
2021/11/12 07:09:46;;;;;;;52.98;30.55;;;;;;;2.29;77.40;99893.08;1597580;89;21115;-65
2021/11/12 07:12:11;;;;;;;55.43;30.30;;;;;;;2.40;77.40;99886.39;1591511;89;21168;-64
2021/11/12 07:14:37;;;;;;;60.17;32.78;;;;;;;2.51;77.34;99894.10;1585972;89;21280;-64
2021/11/12 07:17:05;;;;;;;54.25;30.82;;;;;;;2.56;77.22;99896.88;1605262;87;21574;-65
2021/11/12 07:19:36;;;;;;;57.85;33.75;;;;;;;2.64;77.23;99895.61;1589809;89;21193;-65
2021/11/12 07:22:04;;;;;;;59.50;34.05;;;;;;;2.65;77.24;99895.88;1580237;89;21129;-65
2021/11/12 07:24:32;;;;;;;60.63;34.27;;;;;;;2.67;77.33;99891.83;1620157;87;21936;-64
2021/11/12 07:26:59;;;;;;;60.70;34.58;;;;;;;2.77;77.47;99892.98;1591486;88;21052;-66
2021/11/12 07:29:27;;;;;;;60.98;34.15;;;;;;;2.88;77.55;99885.75;1573101;89;21091;-65
2021/11/12 07:31:55;;;;;;;62.62;35.25;;;;;;;3.02;77.74;99887.50;1598104;89;21110;-65
2021/11/12 07:34:28;;;;;;;71.10;35.90;;;;;;;3.17;77.65;99890.88;1604296;88;21119;-65
2021/11/12 07:36:54;;;;;;;64.37;38.17;;;;;;;3.30;77.53;99889.59;1612665;88;21141;-67
2021/11/12 07:44:41;;;;;;;65.57;35.90;;;;;;;3.59;77.17;99900.66;1649197;86;21118;-64
2021/11/12 07:47:01;;;;;;;61.05;35.35;;;;;;;3.64;77.17;99892.52;1648648;86;21152;-65
2021/11/12 07:49:26;;;;;;;67.47;37.90;;;;;;;3.73;77.11;99888.75;1631270;86;21102;-65
2021/11/12 07:51:55;;;;;;;61.00;36.48;;;;;;;3.83;77.03;99884.70;1650454;86;21088;-65
2021/11/12 07:54:24;;;;;;;75.40;37.90;;;;;;;3.93;77.00;99888.02;1622053;86;21139;-64
2021/11/12 07:56:51;;;;;;;72.60;37.65;;;;;;;4.01;77.10;99888.86;1628905;86;21088;-64
2021/11/12 07:59:18;;;;;;;68.05;39.63;;;;;;;4.15;77.07;99888.36;1629609;86;21044;-65
2021/11/12 08:01:51;;;;;;;77.53;40.90;;;;;;;4.26;76.69;99889.22;1627166;86;21087;-64
2021/11/12 08:04:18;;;;;;;68.05;36.20;;;;;;;4.37;76.52;99886.79;1598205;87;21516;-64
2021/11/12 08:06:50;;;;;;;72.47;37.75;;;;;;;4.45;76.21;99894.18;1612222;87;21063;-65
2021/11/12 08:09:17;;;;;;;63.42;37.05;;;;;;;4.53;76.13;99895.55;1616553;87;21117;-65
2021/11/12 08:11:51;;;;;;;65.83;39.73;;;;;;;4.63;76.10;99893.67;1625260;87;21055;-63
2021/11/12 08:14:31;;;;;;;69.03;39.05;;;;;;;4.73;76.01;99888.76;1582685;90;21197;-64
2021/11/12 08:19:48;;;;;;;59.55;34.48;;;;;;;4.99;75.70;99894.23;1605041;89;21071;-64
2021/11/12 08:25:09;;;;;;;71.20;39.65;;;;;;;5.19;75.01;99901.31;1587198;89;21556;-64
2021/11/12 08:32:46;;;;;;;77.75;42.58;;;;;;;5.51;74.49;99889.23;1598122;88;21058;-65
2021/11/12 08:43:29;;;;;;;61.42;37.17;;;;;;;5.85;73.89;99892.69;1582644;89;21039;-64
2021/11/12 08:48:27;;;;;;;73.52;42.17;;;;;;;6.10;72.97;99884.70;1597168;89;20976;-64
2021/11/12 08:50:51;;;;;;;66.35;41.28;;;;;;;6.17;72.86;99881.66;1578967;89;21619;-63
2021/11/12 08:53:19;;;;;;;69.05;40.90;;;;;;;6.29;72.66;99881.31;1583926;90;21063;-64
2021/11/12 08:55:48;;;;;;;64.67;38.88;;;;;;;6.39;72.19;99877.16;1596543;89;21103;-63
2021/11/12 08:58:17;;;;;;;67.60;40.38;;;;;;;6.45;71.70;99876.02;1618536;87;21147;-62
2021/11/12 09:00:43;;;;;;;70.10;41.42;;;;;;;6.52;71.64;99883.91;1582304;90;21554;-65
2021/11/12 09:03:11;;;;;;;63.05;36.68;;;;;;;6.62;71.41;99875.38;1597155;88;21172;-64
2021/11/12 09:05:38;;;;;;;70.37;39.15;;;;;;;6.72;70.76;99884.06;1585352;90;21157;-63
2021/11/12 09:08:08;;;;;;;70.70;41.63;;;;;;;6.79;70.62;99884.56;1608929;88;21086;-64
2021/11/12 09:10:37;;;;;;;62.85;38.48;;;;;;;6.90;70.46;99882.55;1589228;90;21011;-63
2021/11/12 09:13:13;;;;;;;63.48;38.78;;;;;;;7.04;69.95;99882.17;1594607;88;21076;-64
2021/11/12 09:15:35;;;;;;;66.60;39.13;;;;;;;7.05;68.28;99879.68;1600945;88;21355;-65
2021/11/12 09:18:03;;;;;;;64.62;37.15;;;;;;;6.98;68.89;99876.45;1583894;90;21235;-65
2021/11/12 09:20:31;;;;;;;67.15;38.88;;;;;;;7.04;69.18;99874.48;1581018;90;21528;-65
2021/11/12 09:22:58;;;;;;;63.20;38.80;;;;;;;7.15;68.86;99873.83;1607495;88;21010;-65
2021/11/12 09:25:26;;;;;;;62.13;38.13;;;;;;;7.27;68.60;99889.34;1566355;90;21031;-64
2021/11/12 09:27:52;;;;;;;71.47;43.92;;;;;;;7.38;68.23;99883.77;1616981;88;21049;-65
2021/11/12 09:30:23;;;;;;;71.22;40.70;;;;;;;7.47;68.08;99879.27;1606910;88;21256;-66
2021/11/12 09:32:54;;;;;;;67.92;39.18;;;;;;;7.51;67.48;99880.34;1575338;90;21018;-64
2021/11/12 09:35:21;;;;;;;62.58;36.63;;;;;;;7.46;67.17;99884.50;1615828;87;21566;-64
2021/11/12 09:37:51;;;;;;;67.62;36.95;;;;;;;7.34;66.98;99884.06;1602517;88;21118;-65
2021/11/12 09:40:18;;;;;;;56.02;35.60;;;;;;;7.25;67.33;99874.31;1572597;90;21014;-66
2021/11/12 09:42:48;;;;;;;57.13;34.65;;;;;;;7.23;67.45;99874.59;1573692;90;21557;-65
2021/11/12 09:45:15;;;;;;;61.80;36.33;;;;;;;7.24;67.71;99874.85;1587832;90;20972;-67
2021/11/12 09:47:42;;;;;;;64.22;37.53;;;;;;;7.29;67.76;99872.06;1604190;88;21062;-65
2021/11/12 09:50:16;;;;;;;58.10;35.43;;;;;;;7.35;67.79;99871.47;1567197;90;21126;-64
2021/11/12 09:52:46;;;;;;;62.17;36.45;;;;;;;7.42;67.61;99864.27;1607850;88;21602;-65
2021/11/12 09:55:13;;;;;;;56.70;36.15;;;;;;;7.46;67.41;99862.56;1590138;90;21170;-65
2021/11/12 09:57:40;;;;;;;60.78;33.85;;;;;;;7.50;67.63;99862.80;1578852;90;21039;-64
2021/11/12 10:00:13;;;;;;;60.58;35.13;;;;;;;7.54;67.64;99869.36;1613572;88;21125;-64
2021/11/12 10:02:42;;;;;;;51.77;33.88;;;;;;;7.52;67.87;99868.25;1578442;89;21574;-63
2021/11/12 10:05:14;;;;;;;61.65;35.80;;;;;;;7.53;68.21;99868.53;1560161;90;21094;-64
2021/11/12 10:07:41;;;;;;;53.73;33.65;;;;;;;7.55;68.35;99874.55;1573702;90;21543;-64
2021/11/12 10:10:13;;;;;;;64.65;35.98;;;;;;;7.60;68.61;99865.98;1564689;90;21123;-66
2021/11/12 10:12:45;;;;;;;60.23;36.48;;;;;;;7.63;68.63;99865.39;1598074;89;21500;-64
2021/11/12 10:15:19;;;;;;;57.33;34.43;;;;;;;7.62;68.63;99858.28;1556163;90;21066;-63
2021/11/12 10:17:50;;;;;;;64.42;35.50;;;;;;;7.64;68.92;99861.56;1574795;91;21115;-63
2021/11/12 10:20:21;;;;;;;58.60;34.20;;;;;;;7.69;69.11;99862.88;1587993;89;21859;-65
2021/11/12 10:22:49;;;;;;;67.20;36.65;;;;;;;7.81;69.21;99863.83;1574814;91;21115;-66
2021/11/12 10:25:17;;;;;;;57.45;34.33;;;;;;;7.97;69.23;99861.70;1588471;89;21096;-64
2021/11/12 10:27:50;;;;;;;51.45;32.28;;;;;;;8.07;69.02;99863.48;1586008;89;21040;-64
2021/11/12 10:30:17;;;;;;;51.98;30.65;;;;;;;8.10;68.95;99870.33;1574138;91;21028;-63
2021/11/12 10:32:44;;;;;;;55.17;33.65;;;;;;;8.16;69.08;99868.59;1592670;89;21750;-65
2021/11/12 10:35:26;;;;;;;58.17;35.33;;;;;;;8.23;68.62;99859.17;1574052;90;21103;-65
2021/11/12 10:37:54;;;;;;;60.05;34.25;;;;;;;8.26;68.57;99862.69;1565237;89;21107;-64
2021/11/12 10:40:25;;;;;;;63.65;35.15;;;;;;;8.24;68.43;99853.38;1571917;90;21034;-63
2021/11/12 10:42:54;;;;;;;54.05;31.60;;;;;;;8.19;68.79;99858.94;1567347;90;21051;-64
2021/11/12 10:45:27;;;;;;;57.90;31.70;;;;;;;8.25;69.09;99861.06;1569701;90;21144;-64
2021/11/12 10:47:59;;;;;;;47.27;29.23;;;;;;;8.35;69.42;99858.18;1568096;90;21078;-65
2021/11/12 10:50:33;;;;;;;49.90;29.18;;;;;;;8.50;69.39;99855.76;1570592;90;21078;-65
2021/11/12 10:53:08;;;;;;;44.42;27.90;;;;;;;8.65;69.59;99855.28;1545890;90;21124;-64
2021/11/12 10:55:37;;;;;;;42.43;26.55;;;;;;;8.82;69.23;99851.20;1558097;91;21122;-65
2021/11/12 10:58:07;;;;;;;43.58;26.80;;;;;;;8.87;69.25;99845.61;1552003;91;21650;-66
2021/11/12 11:00:44;;;;;;;49.23;25.85;;;;;;;8.94;69.17;99850.72;1574400;89;21571;-65
2021/11/12 11:03:12;;;;;;;40.88;23.70;;;;;;;8.99;68.97;99851.44;1579490;88;21130;-65
2021/11/12 11:05:46;;;;;;;38.85;22.73;;;;;;;8.98;69.23;99849.81;1608658;88;21062;-64
2021/11/12 11:08:18;;;;;;;35.35;20.43;;;;;;;9.03;69.31;99855.77;1608722;88;21548;-64
2021/11/12 11:11:00;;;;;;;35.48;20.72;;;;;;;9.06;69.54;99853.79;1593434;88;21182;-64
2021/11/12 11:13:32;;;;;;;31.10;19.98;;;;;;;8.93;69.83;99850.45;1590899;88;21580;-64
2021/11/12 11:16:07;;;;;;;36.90;22.17;;;;;;;8.87;70.13;99866.22;1570249;88;21652;-64
2021/11/12 11:18:43;;;;;;;37.42;23.00;;;;;;;8.86;70.11;99857.16;1600100;89;21615;-67
2021/11/12 11:24:00;;;;;;;39.65;21.05;;;;;;;8.83;70.31;99856.39;1582144;89;21146;-64
2021/11/12 11:26:48;;;;;;;42.20;24.47;;;;;;;8.87;70.29;99859.36;1590637;90;21970;-64
2021/11/12 11:29:22;;;;;;;36.80;24.25;;;;;;;8.87;70.19;99852.48;1611166;88;21022;-63
2021/11/12 11:31:50;;;;;;;43.63;26.07;;;;;;;8.92;70.02;99850.20;1613047;87;21074;-63
2021/11/12 11:34:18;;;;;;;46.98;27.40;;;;;;;8.96;69.99;99863.58;1611244;88;21026;-64
2021/11/12 11:36:45;;;;;;;40.52;23.83;;;;;;;9.00;69.96;99859.95;1591465;88;21165;-63
2021/11/12 11:39:15;;;;;;;43.20;24.75;;;;;;;9.03;69.92;99864.02;1614277;88;21339;-65
2021/11/12 11:41:44;;;;;;;40.58;23.12;;;;;;;9.06;69.69;99863.99;1610888;88;21104;-64
2021/11/12 11:44:15;;;;;;;37.13;23.50;;;;;;;9.00;69.72;99859.95;1614009;88;21606;-64
2021/11/12 11:46:44;;;;;;;38.10;23.10;;;;;;;8.99;69.88;99857.51;1614224;88;22137;-64
2021/11/12 11:49:19;;;;;;;36.25;22.42;;;;;;;8.95;70.11;99853.17;1610975;88;21551;-64
2021/11/12 11:51:55;;;;;;;37.98;22.37;;;;;;;8.93;70.55;99849.90;1604920;89;21164;-64
2021/11/12 11:54:23;;;;;;;32.50;19.15;;;;;;;8.92;70.73;99849.66;1590752;90;21051;-66
2021/11/12 11:56:54;;;;;;;30.57;19.50;;;;;;;8.88;70.92;99856.86;1610621;88;21093;-65
2021/11/12 11:59:29;;;;;;;31.20;19.65;;;;;;;8.84;71.32;99855.80;1604849;89;21067;-64
2021/11/12 12:01:59;;;;;;;34.15;20.12;;;;;;;8.85;71.63;99856.09;1590653;90;22367;-64
2021/11/12 12:04:35;;;;;;;38.90;20.70;;;;;;;8.88;71.63;99858.23;1609541;89;21526;-66
2021/11/12 12:07:20;;;;;;;36.20;23.35;;;;;;;8.95;71.56;99862.79;1605951;89;21083;-64
2021/11/12 12:10:01;;;;;;;34.70;20.23;;;;;;;9.02;71.27;99862.40;1610138;89;21285;-65
2021/11/12 12:12:36;;;;;;;40.92;23.02;;;;;;;9.03;71.07;99868.69;1606334;88;21577;-64
2021/11/12 12:15:12;;;;;;;38.80;22.48;;;;;;;8.96;71.16;99867.70;1609478;89;21119;-64
2021/11/12 12:17:50;;;;;;;37.35;22.32;;;;;;;8.85;71.22;99865.13;1606283;88;21415;-65
2021/11/12 12:35:01;;;;;;;38.67;23.73;;;;;;;8.64;72.02;99879.21;1596314;88;21174;-64
2021/11/12 13:25:59;;;;;;;49.27;26.75;;;;;;;8.18;73.67;99914.96;1584148;89;21861;-63
2021/11/12 13:28:38;;;;;;;49.67;26.40;;;;;;;8.12;73.78;99910.66;1592528;89;21060;-65
2021/11/12 13:31:18;;;;;;;49.35;25.57;;;;;;;8.11;73.88;99911.75;1584274;89;21513;-65
2021/11/12 13:33:57;;;;;;;47.45;24.12;;;;;;;8.09;73.93;99923.03;1588762;89;21122;-64
2021/11/12 13:36:33;;;;;;;40.65;22.82;;;;;;;8.02;73.93;99916.52;1560565;90;21052;-64
2021/11/12 13:39:11;;;;;;;46.05;25.43;;;;;;;7.99;74.14;99912.17;1603193;89;21228;-64
2021/11/12 13:41:42;;;;;;;49.48;27.15;;;;;;;7.99;74.20;99914.37;1582380;89;37370;-65
2021/11/12 13:44:19;;;;;;;45.75;25.45;;;;;;;7.97;74.20;99909.72;1594119;89;21076;-64
2021/11/12 13:46:59;;;;;;;42.80;23.50;;;;;;;7.96;74.23;99915.50;1603449;89;21551;-64
2021/11/12 13:49:48;;;;;;;49.05;24.40;;;;;;;7.88;74.19;99919.72;1578506;89;21183;-64
2021/11/12 13:52:23;;;;;;;39.10;21.77;;;;;;;7.79;74.25;99918.17;1603285;89;22106;-65
2021/11/12 13:54:55;;;;;;;41.70;23.32;;;;;;;7.70;74.27;99918.53;1596626;89;21060;-65
2021/11/12 13:57:25;;;;;;;53.05;28.62;;;;;;;7.59;74.31;99924.70;1560758;89;21171;-64
2021/11/12 14:00:11;;;;;;;56.75;29.60;;;;;;;7.48;74.45;99926.16;1599603;89;21596;-64
2021/11/12 14:03:10;;;;;;;53.00;28.23;;;;;;;7.37;74.65;99932.28;1590424;89;21571;-65
2021/11/12 14:05:41;;;;;;;46.92;23.42;;;;;;;7.25;74.77;99934.03;1600508;89;21175;-63
2021/11/12 14:08:12;;;;;;;38.88;23.38;;;;;;;7.11;74.96;99931.70;1571413;89;21162;-64
2021/11/12 14:10:46;;;;;;;38.08;20.43;;;;;;;6.97;75.34;99937.02;1644874;86;21057;-65
2021/11/12 14:13:19;;;;;;;36.90;22.25;;;;;;;6.90;75.67;99946.92;1647402;86;21113;-65
2021/11/12 14:16:09;;;;;;;39.50;22.50;;;;;;;6.85;75.83;99948.33;1647802;86;21064;-65
2021/11/12 14:35:14;;;;;;;45.33;29.07;;;;;;;6.37;77.24;99953.26;1636454;86;21084;-64
2021/11/12 14:40:25;;;;;;;43.25;25.95;;;;;;;6.21;77.62;99966.17;1650208;86;21058;-66
2021/11/12 14:45:41;;;;;;;49.98;25.05;;;;;;;6.04;78.06;99979.62;1649842;86;21841;-65
2021/11/12 14:48:34;;;;;;;44.03;23.85;;;;;;;5.96;78.15;99976.92;1625456;86;21130;-63
2021/11/12 14:51:17;;;;;;;43.13;25.60;;;;;;;5.90;78.23;99978.01;1647715;86;21073;-65
2021/11/12 14:53:49;;;;;;;50.80;25.37;;;;;;;5.85;78.25;99978.05;1648072;86;21170;-65
2021/11/12 14:56:19;;;;;;;51.08;28.47;;;;;;;5.75;78.40;99984.91;1647558;85;21119;-64
2021/11/12 14:58:59;;;;;;;52.13;30.82;;;;;;;5.68;78.60;99990.09;1646828;86;21500;-65
2021/11/12 15:01:26;;;;;;;54.98;32.40;;;;;;;5.62;78.82;99988.47;1648251;86;28267;-65
2021/11/12 15:03:53;;;;;;;58.08;34.10;;;;;;;5.56;78.93;99996.41;1646033;86;21611;-65
2021/11/12 15:06:24;;;;;;;63.95;34.15;;;;;;;5.48;79.00;99998.59;1583367;90;21047;-65
2021/11/12 15:08:57;;;;;;;50.70;29.02;;;;;;;5.39;79.14;100000.22;1597455;89;21071;-64
2021/11/12 15:11:26;;;;;;;52.90;28.17;;;;;;;5.33;79.33;99991.75;1583376;90;21175;-64
2021/11/12 15:14:02;;;;;;;53.20;28.23;;;;;;;5.32;79.42;99992.86;1570363;89;21552;-64
2021/11/12 15:16:24;;;;;;;43.45;27.27;;;;;;;5.31;79.04;99997.50;1597839;89;21030;-65
2021/11/12 15:18:56;;;;;;;48.73;27.32;;;;;;;5.27;78.80;100000.48;1588512;89;21037;-64
2021/11/12 15:21:27;;;;;;;47.60;27.25;;;;;;;5.22;78.78;99993.69;1583284;90;21035;-65
2021/11/12 15:24:03;;;;;;;45.10;25.48;;;;;;;5.20;78.81;100006.79;1579519;89;21235;-66
2021/11/12 15:26:52;;;;;;;41.98;23.30;;;;;;;5.18;79.13;100002.14;1582822;90;21173;-64
2021/11/12 15:29:17;;;;;;;46.60;27.82;;;;;;;5.15;79.01;100008.16;1597084;89;21535;-65
2021/11/12 15:34:31;;;;;;;52.08;28.07;;;;;;;5.02;79.26;100014.41;1628850;87;21046;-65
2021/11/12 15:37:12;;;;;;;54.60;29.72;;;;;;;4.95;80.31;100028.33;1583289;90;21852;-65
2021/11/12 15:39:53;;;;;;;55.00;29.05;;;;;;;4.95;81.20;100036.52;1599399;89;21110;-65
2021/11/12 15:42:26;;;;;;;49.85;30.05;;;;;;;4.99;81.66;100042.27;1598748;89;21550;-65
2021/11/12 15:44:38;;;;;;;54.95;31.27;;;;;;;5.04;82.01;100040.91;1597759;89;21046;-66
2021/11/12 15:48:05;;;;;;;;;;;;;;;;;;;;;
2021/11/12 15:49:40;;;;;;;64.10;35.20;;;;;;;5.15;82.62;100040.40;1548994;90;21147;-65
2021/11/12 15:52:19;;;;;;;72.00;40.52;;;;;;;5.22;82.91;100046.97;1596636;89;21531;-64
2021/11/12 15:54:54;;;;;;;67.45;38.92;;;;;;;5.24;83.13;100052.95;1628223;87;21086;-64
2021/11/12 16:02:59;;;;;;;81.97;42.10;;;;;;;5.34;83.64;100062.53;1607214;89;21172;-66
2021/11/12 16:05:30;;;;;;;78.65;41.53;;;;;;;5.36;83.78;100069.09;1614080;86;21520;-64
2021/11/12 16:07:51;;;;;;;76.55;41.40;;;;;;;5.39;84.04;100067.75;1618136;87;21124;-63
2021/11/12 16:15:20;;;;;;;66.42;38.45;;;;;;;5.48;83.93;100074.30;1622056;87;21172;-64
2021/11/12 16:17:48;;;;;;;65.00;37.05;;;;;;;5.50;83.84;100074.86;1574386;91;21079;-66
2021/11/12 16:23:14;;;;;;;56.80;27.87;;;;;;;5.56;83.59;100077.86;1575194;91;21019;-65
2021/11/12 16:25:25;;;;;;;56.08;32.33;;;;;;;5.59;83.29;100080.07;1554600;91;21031;-63
2021/11/12 16:27:54;;;;;;;58.08;31.75;;;;;;;5.63;83.13;100087.72;1575180;91;21544;-66
2021/11/12 16:30:22;;;;;;;52.58;29.57;;;;;;;5.65;82.99;100085.52;1589920;89;21111;-65
2021/11/12 16:32:53;;;;;;;51.37;30.17;;;;;;;5.68;82.86;100090.46;1571001;91;21135;-65